sensor_id;sensor_type;location;lat;lon;timestamp;P1;durP1;ratioP1;P2;durP2;ratioP2
55090;SDS011;40985;53.180;5.800;2022-08-21T00:00:40;8.23;;;2.42;;
55090;SDS011;40985;53.180;5.800;2022-08-21T00:03:07;5.93;;;3.08;;
55090;SDS011;40985;53.180;5.800;2022-08-21T00:05:38;8.18;;;2.72;;
55090;SDS011;40985;53.180;5.800;2022-08-21T00:08:06;6.13;;;2.60;;
55090;SDS011;40985;53.180;5.800;2022-08-21T00:10:32;9.98;;;3.28;;
55090;SDS011;40985;53.180;5.800;2022-08-21T00:12:59;9.60;;;2.65;;
55090;SDS011;40985;53.180;5.800;2022-08-21T00:15:27;10.48;;;3.65;;
55090;SDS011;40985;53.180;5.800;2022-08-21T00:17:55;10.02;;;3.05;;
55090;SDS011;40985;53.180;5.800;2022-08-21T00:20:21;15.35;;;3.83;;
55090;SDS011;40985;53.180;5.800;2022-08-21T00:22:48;8.48;;;2.92;;
55090;SDS011;40985;53.180;5.800;2022-08-21T00:25:15;7.53;;;3.08;;
55090;SDS011;40985;53.180;5.800;2022-08-21T00:27:41;7.07;;;2.75;;
55090;SDS011;40985;53.180;5.800;2022-08-21T00:30:08;7.00;;;3.10;;
55090;SDS011;40985;53.180;5.800;2022-08-21T00:32:36;8.10;;;3.22;;
55090;SDS011;40985;53.180;5.800;2022-08-21T00:35:07;8.70;;;3.08;;
55090;SDS011;40985;53.180;5.800;2022-08-21T00:37:36;6.57;;;2.92;;
55090;SDS011;40985;53.180;5.800;2022-08-21T00:40:06;10.70;;;3.42;;
55090;SDS011;40985;53.180;5.800;2022-08-21T00:42:34;9.25;;;3.50;;
55090;SDS011;40985;53.180;5.800;2022-08-21T00:45:00;7.40;;;3.95;;
55090;SDS011;40985;53.180;5.800;2022-08-21T00:47:27;8.73;;;3.85;;
55090;SDS011;40985;53.180;5.800;2022-08-21T00:49:53;8.20;;;4.05;;
55090;SDS011;40985;53.180;5.800;2022-08-21T00:52:19;10.75;;;4.43;;
55090;SDS011;40985;53.180;5.800;2022-08-21T00:54:48;8.77;;;4.03;;
55090;SDS011;40985;53.180;5.800;2022-08-21T00:57:17;9.75;;;4.45;;
55090;SDS011;40985;53.180;5.800;2022-08-21T00:59:46;7.72;;;4.28;;
55090;SDS011;40985;53.180;5.800;2022-08-21T01:02:15;8.65;;;5.15;;
55090;SDS011;40985;53.180;5.800;2022-08-21T01:04:42;10.02;;;5.30;;
55090;SDS011;40985;53.180;5.800;2022-08-21T01:07:08;9.10;;;3.88;;
55090;SDS011;40985;53.180;5.800;2022-08-21T01:09:35;7.18;;;4.07;;
55090;SDS011;40985;53.180;5.800;2022-08-21T01:12:01;4.90;;;4.40;;
55090;SDS011;40985;53.180;5.800;2022-08-21T01:14:28;10.50;;;5.72;;
55090;SDS011;40985;53.180;5.800;2022-08-21T01:16:55;6.88;;;4.93;;
55090;SDS011;40985;53.180;5.800;2022-08-21T01:19:23;11.52;;;5.30;;
55090;SDS011;40985;53.180;5.800;2022-08-21T01:21:49;7.57;;;5.85;;
55090;SDS011;40985;53.180;5.800;2022-08-21T01:24:15;9.98;;;5.95;;
55090;SDS011;40985;53.180;5.800;2022-08-21T01:26:41;8.60;;;5.97;;
55090;SDS011;40985;53.180;5.800;2022-08-21T01:32:12;8.13;;;6.28;;
55090;SDS011;40985;53.180;5.800;2022-08-21T01:34:42;13.40;;;5.60;;
55090;SDS011;40985;53.180;5.800;2022-08-21T01:37:10;11.25;;;5.88;;
55090;SDS011;40985;53.180;5.800;2022-08-21T01:39:36;9.80;;;6.57;;
55090;SDS011;40985;53.180;5.800;2022-08-21T01:42:03;11.05;;;5.70;;
55090;SDS011;40985;53.180;5.800;2022-08-21T01:44:29;10.93;;;5.88;;
55090;SDS011;40985;53.180;5.800;2022-08-21T01:46:55;10.32;;;6.32;;
55090;SDS011;40985;53.180;5.800;2022-08-21T01:49:24;9.70;;;6.70;;
55090;SDS011;40985;53.180;5.800;2022-08-21T01:51:49;9.13;;;5.60;;
55090;SDS011;40985;53.180;5.800;2022-08-21T01:54:15;9.65;;;6.05;;
55090;SDS011;40985;53.180;5.800;2022-08-21T01:56:42;8.25;;;5.18;;
55090;SDS011;40985;53.180;5.800;2022-08-21T01:59:09;8.30;;;5.95;;
55090;SDS011;40985;53.180;5.800;2022-08-21T02:01:36;11.45;;;6.80;;
55090;SDS011;40985;53.180;5.800;2022-08-21T02:04:04;9.50;;;6.32;;
55090;SDS011;40985;53.180;5.800;2022-08-21T02:06:31;6.85;;;6.07;;
55090;SDS011;40985;53.180;5.800;2022-08-21T02:08:57;10.60;;;6.43;;
55090;SDS011;40985;53.180;5.800;2022-08-21T02:11:22;6.50;;;5.43;;
55090;SDS011;40985;53.180;5.800;2022-08-21T02:13:48;10.13;;;6.30;;
55090;SDS011;40985;53.180;5.800;2022-08-21T02:16:14;10.05;;;6.13;;
55090;SDS011;40985;53.180;5.800;2022-08-21T02:18:40;7.68;;;5.60;;
55090;SDS011;40985;53.180;5.800;2022-08-21T02:21:06;10.48;;;7.50;;
55090;SDS011;40985;53.180;5.800;2022-08-21T02:23:32;10.90;;;6.13;;
55090;SDS011;40985;53.180;5.800;2022-08-21T02:26:03;12.93;;;6.63;;
55090;SDS011;40985;53.180;5.800;2022-08-21T02:28:31;7.90;;;5.82;;
55090;SDS011;40985;53.180;5.800;2022-08-21T02:30:57;6.93;;;5.35;;
55090;SDS011;40985;53.180;5.800;2022-08-21T02:33:24;9.13;;;6.13;;
55090;SDS011;40985;53.180;5.800;2022-08-21T02:35:51;11.07;;;6.18;;
55090;SDS011;40985;53.180;5.800;2022-08-21T02:38:18;11.27;;;6.13;;
55090;SDS011;40985;53.180;5.800;2022-08-21T02:40:48;10.68;;;6.32;;
55090;SDS011;40985;53.180;5.800;2022-08-21T02:43:15;8.40;;;5.50;;
55090;SDS011;40985;53.180;5.800;2022-08-21T02:45:42;11.18;;;5.97;;
55090;SDS011;40985;53.180;5.800;2022-08-21T02:48:09;9.15;;;5.63;;
55090;SDS011;40985;53.180;5.800;2022-08-21T02:50:38;9.80;;;5.85;;
55090;SDS011;40985;53.180;5.800;2022-08-21T02:53:07;8.32;;;6.18;;
55090;SDS011;40985;53.180;5.800;2022-08-21T02:55:35;8.70;;;6.00;;
55090;SDS011;40985;53.180;5.800;2022-08-21T02:58:03;9.27;;;6.57;;
55090;SDS011;40985;53.180;5.800;2022-08-21T03:00:31;11.85;;;6.10;;
55090;SDS011;40985;53.180;5.800;2022-08-21T03:02:57;13.73;;;6.70;;
55090;SDS011;40985;53.180;5.800;2022-08-21T03:05:24;12.98;;;7.18;;
55090;SDS011;40985;53.180;5.800;2022-08-21T03:07:52;13.23;;;6.78;;
55090;SDS011;40985;53.180;5.800;2022-08-21T03:10:19;11.88;;;6.78;;
55090;SDS011;40985;53.180;5.800;2022-08-21T03:12:46;9.20;;;7.25;;
55090;SDS011;40985;53.180;5.800;2022-08-21T03:15:13;11.88;;;7.32;;
55090;SDS011;40985;53.180;5.800;2022-08-21T03:17:42;10.38;;;7.07;;
55090;SDS011;40985;53.180;5.800;2022-08-21T03:20:08;10.70;;;6.85;;
55090;SDS011;40985;53.180;5.800;2022-08-21T03:22:34;14.93;;;7.15;;
55090;SDS011;40985;53.180;5.800;2022-08-21T03:25:00;13.82;;;7.72;;
55090;SDS011;40985;53.180;5.800;2022-08-21T03:27:26;14.15;;;6.40;;
55090;SDS011;40985;53.180;5.800;2022-08-21T03:29:53;11.20;;;6.80;;
55090;SDS011;40985;53.180;5.800;2022-08-21T03:32:19;16.05;;;6.85;;
55090;SDS011;40985;53.180;5.800;2022-08-21T03:34:46;13.88;;;6.75;;
55090;SDS011;40985;53.180;5.800;2022-08-21T03:37:13;17.92;;;7.13;;
55090;SDS011;40985;53.180;5.800;2022-08-21T03:39:39;13.13;;;6.50;;
55090;SDS011;40985;53.180;5.800;2022-08-21T03:42:06;13.90;;;6.90;;
55090;SDS011;40985;53.180;5.800;2022-08-21T03:44:33;11.65;;;6.10;;
55090;SDS011;40985;53.180;5.800;2022-08-21T03:46:59;12.82;;;6.20;;
55090;SDS011;40985;53.180;5.800;2022-08-21T03:49:26;13.43;;;6.07;;
55090;SDS011;40985;53.180;5.800;2022-08-21T03:51:52;9.98;;;5.78;;
55090;SDS011;40985;53.180;5.800;2022-08-21T03:54:18;8.02;;;6.10;;
55090;SDS011;40985;53.180;5.800;2022-08-21T03:56:44;9.95;;;6.07;;
55090;SDS011;40985;53.180;5.800;2022-08-21T03:59:10;15.40;;;7.32;;
55090;SDS011;40985;53.180;5.800;2022-08-21T04:01:36;12.02;;;6.35;;
55090;SDS011;40985;53.180;5.800;2022-08-21T04:04:03;13.02;;;6.43;;
55090;SDS011;40985;53.180;5.800;2022-08-21T04:06:30;12.93;;;6.45;;
55090;SDS011;40985;53.180;5.800;2022-08-21T04:08:56;12.93;;;6.13;;
55090;SDS011;40985;53.180;5.800;2022-08-21T04:11:21;10.13;;;6.43;;
55090;SDS011;40985;53.180;5.800;2022-08-21T04:13:47;13.68;;;6.45;;
55090;SDS011;40985;53.180;5.800;2022-08-21T04:16:13;12.55;;;7.15;;
55090;SDS011;40985;53.180;5.800;2022-08-21T04:18:39;11.40;;;5.75;;
55090;SDS011;40985;53.180;5.800;2022-08-21T04:21:05;14.13;;;8.07;;
55090;SDS011;40985;53.180;5.800;2022-08-21T04:23:32;11.00;;;6.28;;
55090;SDS011;40985;53.180;5.800;2022-08-21T04:25:59;13.98;;;7.20;;
55090;SDS011;40985;53.180;5.800;2022-08-21T04:28:25;13.25;;;6.93;;
55090;SDS011;40985;53.180;5.800;2022-08-21T04:30:52;13.75;;;7.10;;
55090;SDS011;40985;53.180;5.800;2022-08-21T04:33:19;11.45;;;6.32;;
55090;SDS011;40985;53.180;5.800;2022-08-21T04:35:45;12.68;;;7.03;;
55090;SDS011;40985;53.180;5.800;2022-08-21T04:38:11;16.02;;;6.53;;
55090;SDS011;40985;53.180;5.800;2022-08-21T04:40:37;9.98;;;6.00;;
55090;SDS011;40985;53.180;5.800;2022-08-21T04:43:06;12.18;;;6.25;;
55090;SDS011;40985;53.180;5.800;2022-08-21T04:45:35;10.52;;;6.85;;
55090;SDS011;40985;53.180;5.800;2022-08-21T04:48:04;10.63;;;6.70;;
55090;SDS011;40985;53.180;5.800;2022-08-21T04:50:34;14.05;;;7.10;;
55090;SDS011;40985;53.180;5.800;2022-08-21T04:53:18;10.23;;;6.38;;
55090;SDS011;40985;53.180;5.800;2022-08-21T04:55:47;11.43;;;7.07;;
55090;SDS011;40985;53.180;5.800;2022-08-21T04:58:15;15.35;;;7.43;;
55090;SDS011;40985;53.180;5.800;2022-08-21T05:00:43;12.02;;;7.38;;
55090;SDS011;40985;53.180;5.800;2022-08-21T05:03:10;11.60;;;6.85;;
55090;SDS011;40985;53.180;5.800;2022-08-21T05:05:37;10.45;;;7.70;;
55090;SDS011;40985;53.180;5.800;2022-08-21T05:08:04;14.95;;;7.10;;
55090;SDS011;40985;53.180;5.800;2022-08-21T05:10:34;8.65;;;6.25;;
55090;SDS011;40985;53.180;5.800;2022-08-21T05:13:00;13.85;;;7.22;;
55090;SDS011;40985;53.180;5.800;2022-08-21T05:15:26;10.57;;;7.35;;
55090;SDS011;40985;53.180;5.800;2022-08-21T05:17:52;13.02;;;7.85;;
55090;SDS011;40985;53.180;5.800;2022-08-21T05:20:17;11.90;;;7.30;;
55090;SDS011;40985;53.180;5.800;2022-08-21T05:22:44;12.38;;;6.60;;
55090;SDS011;40985;53.180;5.800;2022-08-21T05:25:10;12.98;;;7.32;;
55090;SDS011;40985;53.180;5.800;2022-08-21T05:27:37;17.95;;;7.45;;
55090;SDS011;40985;53.180;5.800;2022-08-21T05:30:04;10.98;;;6.82;;
55090;SDS011;40985;53.180;5.800;2022-08-21T05:32:34;11.85;;;7.65;;
55090;SDS011;40985;53.180;5.800;2022-08-21T05:35:00;12.18;;;6.82;;
55090;SDS011;40985;53.180;5.800;2022-08-21T05:37:27;13.60;;;7.22;;
55090;SDS011;40985;53.180;5.800;2022-08-21T05:39:53;13.23;;;6.90;;
55090;SDS011;40985;53.180;5.800;2022-08-21T05:42:18;9.73;;;7.00;;
55090;SDS011;40985;53.180;5.800;2022-08-21T05:44:44;9.80;;;6.78;;
55090;SDS011;40985;53.180;5.800;2022-08-21T05:47:10;12.15;;;6.60;;
55090;SDS011;40985;53.180;5.800;2022-08-21T05:49:36;17.15;;;7.45;;
55090;SDS011;40985;53.180;5.800;2022-08-21T05:52:02;17.30;;;7.63;;
55090;SDS011;40985;53.180;5.800;2022-08-21T05:54:29;15.60;;;6.50;;
55090;SDS011;40985;53.180;5.800;2022-08-21T05:56:56;14.73;;;7.18;;
55090;SDS011;40985;53.180;5.800;2022-08-21T05:59:22;16.35;;;7.32;;
55090;SDS011;40985;53.180;5.800;2022-08-21T06:01:48;15.65;;;6.80;;
55090;SDS011;40985;53.180;5.800;2022-08-21T06:04:14;13.05;;;6.70;;
55090;SDS011;40985;53.180;5.800;2022-08-21T06:06:41;14.32;;;5.57;;
55090;SDS011;40985;53.180;5.800;2022-08-21T06:09:07;17.58;;;6.43;;
55090;SDS011;40985;53.180;5.800;2022-08-21T06:11:32;15.68;;;7.03;;
55090;SDS011;40985;53.180;5.800;2022-08-21T06:13:58;14.90;;;6.20;;
55090;SDS011;40985;53.180;5.800;2022-08-21T06:16:25;16.40;;;6.78;;
55090;SDS011;40985;53.180;5.800;2022-08-21T06:18:51;16.80;;;6.65;;
55090;SDS011;40985;53.180;5.800;2022-08-21T06:21:17;12.10;;;6.82;;
55090;SDS011;40985;53.180;5.800;2022-08-21T06:23:43;14.68;;;6.05;;
55090;SDS011;40985;53.180;5.800;2022-08-21T06:26:10;14.68;;;5.80;;
55090;SDS011;40985;53.180;5.800;2022-08-21T06:28:38;20.50;;;6.07;;
55090;SDS011;40985;53.180;5.800;2022-08-21T06:31:11;17.15;;;5.65;;
55090;SDS011;40985;53.180;5.800;2022-08-21T06:33:42;13.77;;;5.88;;
55090;SDS011;40985;53.180;5.800;2022-08-21T06:36:08;13.90;;;5.80;;
55090;SDS011;40985;53.180;5.800;2022-08-21T06:38:34;17.88;;;5.75;;
55090;SDS011;40985;53.180;5.800;2022-08-21T06:41:00;12.18;;;5.28;;
55090;SDS011;40985;53.180;5.800;2022-08-21T06:43:26;17.90;;;6.20;;
55090;SDS011;40985;53.180;5.800;2022-08-21T06:45:52;11.00;;;5.32;;
55090;SDS011;40985;53.180;5.800;2022-08-21T06:48:17;14.27;;;4.65;;
55090;SDS011;40985;53.180;5.800;2022-08-21T06:50:44;15.27;;;4.75;;
55090;SDS011;40985;53.180;5.800;2022-08-21T06:53:10;11.40;;;4.47;;
55090;SDS011;40985;53.180;5.800;2022-08-21T06:55:38;17.85;;;5.90;;
55090;SDS011;40985;53.180;5.800;2022-08-21T06:58:05;9.93;;;5.22;;
55090;SDS011;40985;53.180;5.800;2022-08-21T07:00:31;13.80;;;4.47;;
55090;SDS011;40985;53.180;5.800;2022-08-21T07:02:57;16.27;;;4.10;;
55090;SDS011;40985;53.180;5.800;2022-08-21T07:05:30;15.27;;;4.72;;
55090;SDS011;40985;53.180;5.800;2022-08-21T07:07:56;17.63;;;4.07;;
55090;SDS011;40985;53.180;5.800;2022-08-21T07:10:22;8.73;;;3.58;;
55090;SDS011;40985;53.180;5.800;2022-08-21T07:12:49;9.45;;;2.92;;
55090;SDS011;40985;53.180;5.800;2022-08-21T07:15:15;13.98;;;2.53;;
55090;SDS011;40985;53.180;5.800;2022-08-21T07:17:41;9.10;;;1.27;;
55090;SDS011;40985;53.180;5.800;2022-08-21T07:20:07;11.40;;;2.05;;
55090;SDS011;40985;53.180;5.800;2022-08-21T07:22:34;6.72;;;1.00;;
55090;SDS011;40985;53.180;5.800;2022-08-21T07:25:01;11.43;;;1.27;;
55090;SDS011;40985;53.180;5.800;2022-08-21T07:27:28;9.98;;;1.83;;
55090;SDS011;40985;53.180;5.800;2022-08-21T07:29:54;15.73;;;1.35;;
55090;SDS011;40985;53.180;5.800;2022-08-21T07:32:19;9.57;;;1.15;;
55090;SDS011;40985;53.180;5.800;2022-08-21T07:34:45;9.75;;;1.20;;
55090;SDS011;40985;53.180;5.800;2022-08-21T07:37:11;11.15;;;1.45;;
55090;SDS011;40985;53.180;5.800;2022-08-21T07:39:36;10.45;;;1.45;;
55090;SDS011;40985;53.180;5.800;2022-08-21T07:42:03;11.00;;;1.10;;
55090;SDS011;40985;53.180;5.800;2022-08-21T07:44:29;9.40;;;1.50;;
55090;SDS011;40985;53.180;5.800;2022-08-21T07:46:55;10.75;;;1.58;;
55090;SDS011;40985;53.180;5.800;2022-08-21T07:49:20;10.15;;;1.05;;
55090;SDS011;40985;53.180;5.800;2022-08-21T07:51:46;7.05;;;0.70;;
55090;SDS011;40985;53.180;5.800;2022-08-21T07:54:12;9.95;;;1.33;;
55090;SDS011;40985;53.180;5.800;2022-08-21T07:56:37;12.68;;;1.83;;
55090;SDS011;40985;53.180;5.800;2022-08-21T07:59:03;12.48;;;1.45;;
55090;SDS011;40985;53.180;5.800;2022-08-21T08:01:29;13.07;;;1.90;;
55090;SDS011;40985;53.180;5.800;2022-08-21T08:03:55;10.35;;;1.20;;
55090;SDS011;40985;53.180;5.800;2022-08-21T08:06:21;6.38;;;0.93;;
55090;SDS011;40985;53.180;5.800;2022-08-21T08:08:48;7.63;;;1.05;;
55090;SDS011;40985;53.180;5.800;2022-08-21T08:11:13;9.98;;;2.42;;
55090;SDS011;40985;53.180;5.800;2022-08-21T08:13:43;7.68;;;1.95;;
55090;SDS011;40985;53.180;5.800;2022-08-21T08:16:11;12.30;;;1.67;;
55090;SDS011;40985;53.180;5.800;2022-08-21T08:18:37;7.53;;;1.20;;
55090;SDS011;40985;53.180;5.800;2022-08-21T08:21:03;14.07;;;2.28;;
55090;SDS011;40985;53.180;5.800;2022-08-21T08:23:30;11.88;;;1.65;;
55090;SDS011;40985;53.180;5.800;2022-08-21T08:25:56;10.23;;;1.73;;
55090;SDS011;40985;53.180;5.800;2022-08-21T08:28:22;10.63;;;1.40;;
55090;SDS011;40985;53.180;5.800;2022-08-21T08:30:48;10.85;;;1.58;;
55090;SDS011;40985;53.180;5.800;2022-08-21T08:33:14;6.07;;;1.15;;
55090;SDS011;40985;53.180;5.800;2022-08-21T08:35:42;8.25;;;1.30;;
55090;SDS011;40985;53.180;5.800;2022-08-21T08:38:10;11.30;;;1.38;;
55090;SDS011;40985;53.180;5.800;2022-08-21T08:43:09;7.53;;;0.90;;
55090;SDS011;40985;53.180;5.800;2022-08-21T08:45:37;7.82;;;0.85;;
55090;SDS011;40985;53.180;5.800;2022-08-21T08:48:06;11.07;;;1.50;;
55090;SDS011;40985;53.180;5.800;2022-08-21T08:50:48;7.63;;;0.95;;
55090;SDS011;40985;53.180;5.800;2022-08-21T08:53:29;9.00;;;0.70;;
55090;SDS011;40985;53.180;5.800;2022-08-21T08:55:58;7.75;;;0.95;;
55090;SDS011;40985;53.180;5.800;2022-08-21T08:58:48;8.90;;;1.02;;
55090;SDS011;40985;53.180;5.800;2022-08-21T09:01:15;8.23;;;0.70;;
55090;SDS011;40985;53.180;5.800;2022-08-21T09:03:44;7.47;;;1.00;;
55090;SDS011;40985;53.180;5.800;2022-08-21T09:06:22;9.50;;;1.00;;
55090;SDS011;40985;53.180;5.800;2022-08-21T09:12:16;14.77;;;1.20;;
55090;SDS011;40985;53.180;5.800;2022-08-21T09:20:57;6.50;;;0.75;;
55090;SDS011;40985;53.180;5.800;2022-08-21T09:26:14;5.93;;;0.52;;
55090;SDS011;40985;53.180;5.800;2022-08-21T09:28:45;7.32;;;1.42;;
55090;SDS011;40985;53.180;5.800;2022-08-21T09:31:25;4.15;;;0.57;;
55090;SDS011;40985;53.180;5.800;2022-08-21T09:33:59;5.47;;;0.80;;
55090;SDS011;40985;53.180;5.800;2022-08-21T09:36:33;8.02;;;1.02;;
55090;SDS011;40985;53.180;5.800;2022-08-21T09:39:08;4.70;;;0.45;;
55090;SDS011;40985;53.180;5.800;2022-08-21T09:41:36;4.28;;;1.25;;
55090;SDS011;40985;53.180;5.800;2022-08-21T09:44:03;4.00;;;0.50;;
55090;SDS011;40985;53.180;5.800;2022-08-21T09:46:31;5.00;;;0.60;;
55090;SDS011;40985;53.180;5.800;2022-08-21T09:48:59;4.43;;;0.40;;
55090;SDS011;40985;53.180;5.800;2022-08-21T09:51:30;4.40;;;0.60;;
55090;SDS011;40985;53.180;5.800;2022-08-21T09:56:34;3.83;;;0.57;;
55090;SDS011;40985;53.180;5.800;2022-08-21T09:59:26;4.72;;;0.30;;
55090;SDS011;40985;53.180;5.800;2022-08-21T10:01:52;4.03;;;0.52;;
55090;SDS011;40985;53.180;5.800;2022-08-21T10:04:20;3.33;;;0.43;;
55090;SDS011;40985;53.180;5.800;2022-08-21T10:06:48;5.72;;;0.60;;
55090;SDS011;40985;53.180;5.800;2022-08-21T10:09:15;5.00;;;1.27;;
55090;SDS011;40985;53.180;5.800;2022-08-21T10:11:58;2.75;;;0.40;;
55090;SDS011;40985;53.180;5.800;2022-08-21T10:14:37;2.95;;;0.30;;
55090;SDS011;40985;53.180;5.800;2022-08-21T10:22:55;4.45;;;0.63;;
55090;SDS011;40985;53.180;5.800;2022-08-21T10:25:38;2.15;;;0.40;;
55090;SDS011;40985;53.180;5.800;2022-08-21T10:28:14;2.78;;;0.38;;
55090;SDS011;40985;53.180;5.800;2022-08-21T10:31:02;2.88;;;0.35;;
55090;SDS011;40985;53.180;5.800;2022-08-21T10:36:55;4.20;;;0.32;;
55090;SDS011;40985;53.180;5.800;2022-08-21T10:39:47;2.65;;;0.20;;
55090;SDS011;40985;53.180;5.800;2022-08-21T10:47:50;2.38;;;0.38;;
55090;SDS011;40985;53.180;5.800;2022-08-21T10:53:36;5.53;;;0.40;;
55090;SDS011;40985;53.180;5.800;2022-08-21T10:58:44;7.28;;;0.55;;
55090;SDS011;40985;53.180;5.800;2022-08-21T11:04:14;3.60;;;0.55;;
55090;SDS011;40985;53.180;5.800;2022-08-21T11:07:05;3.47;;;0.40;;
55090;SDS011;40985;53.180;5.800;2022-08-21T11:09:35;4.40;;;0.40;;
55090;SDS011;40985;53.180;5.800;2022-08-21T11:12:05;2.78;;;0.40;;
55090;SDS011;40985;53.180;5.800;2022-08-21T11:17:19;3.90;;;0.40;;
55090;SDS011;40985;53.180;5.800;2022-08-21T11:22:47;3.75;;;0.50;;
55090;SDS011;40985;53.180;5.800;2022-08-21T11:27:54;2.03;;;0.40;;
55090;SDS011;40985;53.180;5.800;2022-08-21T11:30:54;1.85;;;0.40;;
55090;SDS011;40985;53.180;5.800;2022-08-21T11:36:25;6.50;;;1.40;;
55090;SDS011;40985;53.180;5.800;2022-08-21T11:58:11;3.67;;;0.50;;
55090;SDS011;40985;53.180;5.800;2022-08-21T12:00:45;2.90;;;0.30;;
55090;SDS011;40985;53.180;5.800;2022-08-21T12:03:16;5.50;;;0.80;;
55090;SDS011;40985;53.180;5.800;2022-08-21T12:05:56;4.25;;;0.50;;
55090;SDS011;40985;53.180;5.800;2022-08-21T12:13:52;2.45;;;0.57;;
55090;SDS011;40985;53.180;5.800;2022-08-21T12:16:28;2.53;;;0.30;;
55090;SDS011;40985;53.180;5.800;2022-08-21T12:19:07;6.85;;;0.57;;
55090;SDS011;40985;53.180;5.800;2022-08-21T12:28:06;5.72;;;1.27;;
55090;SDS011;40985;53.180;5.800;2022-08-21T12:30:21;3.80;;;0.40;;
55090;SDS011;40985;53.180;5.800;2022-08-21T12:33:27;6.32;;;0.80;;
55090;SDS011;40985;53.180;5.800;2022-08-21T12:36:07;3.10;;;0.52;;
55090;SDS011;40985;53.180;5.800;2022-08-21T12:38:42;2.85;;;0.35;;
55090;SDS011;40985;53.180;5.800;2022-08-21T12:41:19;3.92;;;0.65;;
55090;SDS011;40985;53.180;5.800;2022-08-21T12:43:57;2.60;;;0.50;;
55090;SDS011;40985;53.180;5.800;2022-08-21T12:46:36;3.75;;;0.82;;
55090;SDS011;40985;53.180;5.800;2022-08-21T12:49:14;3.63;;;0.85;;
55090;SDS011;40985;53.180;5.800;2022-08-21T12:51:51;7.60;;;0.30;;
55090;SDS011;40985;53.180;5.800;2022-08-21T12:54:29;4.55;;;0.80;;
55090;SDS011;40985;53.180;5.800;2022-08-21T12:56:58;5.10;;;0.35;;
55090;SDS011;40985;53.180;5.800;2022-08-21T12:59:26;3.00;;;0.40;;
55090;SDS011;40985;53.180;5.800;2022-08-21T13:01:52;5.10;;;0.98;;
55090;SDS011;40985;53.180;5.800;2022-08-21T13:04:33;3.90;;;0.55;;
55090;SDS011;40985;53.180;5.800;2022-08-21T13:07:04;4.05;;;0.57;;
55090;SDS011;40985;53.180;5.800;2022-08-21T13:09:32;4.53;;;0.50;;
55090;SDS011;40985;53.180;5.800;2022-08-21T13:11:58;3.58;;;0.45;;
55090;SDS011;40985;53.180;5.800;2022-08-21T13:16:58;4.85;;;0.32;;
55090;SDS011;40985;53.180;5.800;2022-08-21T13:19:24;4.38;;;1.30;;
55090;SDS011;40985;53.180;5.800;2022-08-21T13:21:51;4.80;;;0.50;;
55090;SDS011;40985;53.180;5.800;2022-08-21T13:24:22;4.95;;;0.60;;
55090;SDS011;40985;53.180;5.800;2022-08-21T13:26:50;4.82;;;0.40;;
55090;SDS011;40985;53.180;5.800;2022-08-21T13:29:19;2.55;;;0.30;;
55090;SDS011;40985;53.180;5.800;2022-08-21T13:31:48;2.13;;;0.30;;
55090;SDS011;40985;53.180;5.800;2022-08-21T13:34:18;3.47;;;0.70;;
55090;SDS011;40985;53.180;5.800;2022-08-21T13:36:50;3.42;;;0.52;;
55090;SDS011;40985;53.180;5.800;2022-08-21T13:39:20;6.00;;;0.55;;
55090;SDS011;40985;53.180;5.800;2022-08-21T13:41:48;3.33;;;0.30;;
55090;SDS011;40985;53.180;5.800;2022-08-21T13:44:50;2.17;;;0.30;;
55090;SDS011;40985;53.180;5.800;2022-08-21T13:47:12;3.13;;;0.32;;
55090;SDS011;40985;53.180;5.800;2022-08-21T13:49:40;3.63;;;0.63;;
55090;SDS011;40985;53.180;5.800;2022-08-21T13:52:24;3.92;;;0.50;;
55090;SDS011;40985;53.180;5.800;2022-08-21T13:54:59;4.57;;;0.73;;
55090;SDS011;40985;53.180;5.800;2022-08-21T13:57:27;3.45;;;0.60;;
55090;SDS011;40985;53.180;5.800;2022-08-21T14:02:48;6.13;;;0.50;;
55090;SDS011;40985;53.180;5.800;2022-08-21T14:05:21;6.95;;;0.82;;
55090;SDS011;40985;53.180;5.800;2022-08-21T14:07:51;5.38;;;1.20;;
55090;SDS011;40985;53.180;5.800;2022-08-21T14:10:30;8.20;;;0.70;;
55090;SDS011;40985;53.180;5.800;2022-08-21T14:13:01;4.05;;;0.40;;
55090;SDS011;40985;53.180;5.800;2022-08-21T14:15:30;2.90;;;0.30;;
55090;SDS011;40985;53.180;5.800;2022-08-21T14:18:17;8.70;;;0.80;;
55090;SDS011;40985;53.180;5.800;2022-08-21T14:20:44;8.57;;;1.02;;
55090;SDS011;40985;53.180;5.800;2022-08-21T14:23:10;4.30;;;0.40;;
55090;SDS011;40985;53.180;5.800;2022-08-21T14:25:45;2.53;;;0.55;;
55090;SDS011;40985;53.180;5.800;2022-08-21T14:28:15;3.97;;;0.35;;
55090;SDS011;40985;53.180;5.800;2022-08-21T14:30:51;5.25;;;0.30;;
55090;SDS011;40985;53.180;5.800;2022-08-21T14:33:23;5.80;;;0.40;;
55090;SDS011;40985;53.180;5.800;2022-08-21T14:35:52;6.05;;;0.35;;
55090;SDS011;40985;53.180;5.800;2022-08-21T14:38:19;4.65;;;0.70;;
55090;SDS011;40985;53.180;5.800;2022-08-21T14:40:48;3.42;;;0.40;;
55090;SDS011;40985;53.180;5.800;2022-08-21T14:43:16;6.00;;;0.90;;
55090;SDS011;40985;53.180;5.800;2022-08-21T14:45:44;4.85;;;0.75;;
55090;SDS011;40985;53.180;5.800;2022-08-21T14:48:10;5.32;;;0.80;;
55090;SDS011;40985;53.180;5.800;2022-08-21T14:50:36;4.03;;;0.40;;
55090;SDS011;40985;53.180;5.800;2022-08-21T14:53:02;4.13;;;0.45;;
55090;SDS011;40985;53.180;5.800;2022-08-21T14:55:29;4.43;;;0.40;;
55090;SDS011;40985;53.180;5.800;2022-08-21T14:58:16;4.85;;;0.40;;
55090;SDS011;40985;53.180;5.800;2022-08-21T15:00:42;8.35;;;0.65;;
55090;SDS011;40985;53.180;5.800;2022-08-21T15:03:07;6.47;;;0.63;;
55090;SDS011;40985;53.180;5.800;2022-08-21T15:05:33;5.47;;;0.73;;
55090;SDS011;40985;53.180;5.800;2022-08-21T15:07:59;4.40;;;0.68;;
55090;SDS011;40985;53.180;5.800;2022-08-21T15:10:25;4.50;;;0.60;;
55090;SDS011;40985;53.180;5.800;2022-08-21T15:12:50;6.18;;;0.50;;
55090;SDS011;40985;53.180;5.800;2022-08-21T15:15:16;6.38;;;0.70;;
55090;SDS011;40985;53.180;5.800;2022-08-21T15:17:42;7.03;;;1.13;;
55090;SDS011;40985;53.180;5.800;2022-08-21T15:20:08;5.95;;;0.68;;
55090;SDS011;40985;53.180;5.800;2022-08-21T15:22:34;7.95;;;1.83;;
55090;SDS011;40985;53.180;5.800;2022-08-21T15:25:00;4.00;;;0.47;;
55090;SDS011;40985;53.180;5.800;2022-08-21T15:27:26;5.80;;;0.40;;
55090;SDS011;40985;53.180;5.800;2022-08-21T15:29:53;3.25;;;0.40;;
55090;SDS011;40985;53.180;5.800;2022-08-21T15:32:26;4.43;;;0.40;;
55090;SDS011;40985;53.180;5.800;2022-08-21T15:34:54;4.20;;;0.88;;
55090;SDS011;40985;53.180;5.800;2022-08-21T15:37:21;5.30;;;0.43;;
55090;SDS011;40985;53.180;5.800;2022-08-21T15:39:48;6.50;;;0.50;;
55090;SDS011;40985;53.180;5.800;2022-08-21T15:42:14;4.75;;;0.40;;
55090;SDS011;40985;53.180;5.800;2022-08-21T15:44:41;5.28;;;0.73;;
55090;SDS011;40985;53.180;5.800;2022-08-21T15:47:18;4.05;;;0.50;;
55090;SDS011;40985;53.180;5.800;2022-08-21T15:49:47;5.47;;;0.80;;
55090;SDS011;40985;53.180;5.800;2022-08-21T15:52:13;3.72;;;0.65;;
55090;SDS011;40985;53.180;5.800;2022-08-21T15:54:41;3.70;;;0.63;;
55090;SDS011;40985;53.180;5.800;2022-08-21T15:57:08;3.72;;;0.40;;
55090;SDS011;40985;53.180;5.800;2022-08-21T15:59:45;4.03;;;0.45;;
55090;SDS011;40985;53.180;5.800;2022-08-21T16:02:14;3.78;;;0.65;;
55090;SDS011;40985;53.180;5.800;2022-08-21T16:04:43;4.18;;;0.45;;
55090;SDS011;40985;53.180;5.800;2022-08-21T16:07:09;4.97;;;1.00;;
55090;SDS011;40985;53.180;5.800;2022-08-21T16:09:36;7.30;;;0.77;;
55090;SDS011;40985;53.180;5.800;2022-08-21T16:12:03;6.78;;;0.95;;
55090;SDS011;40985;53.180;5.800;2022-08-21T16:14:30;4.22;;;0.75;;
55090;SDS011;40985;53.180;5.800;2022-08-21T16:16:58;4.40;;;0.50;;
55090;SDS011;40985;53.180;5.800;2022-08-21T16:19:25;5.55;;;0.50;;
55090;SDS011;40985;53.180;5.800;2022-08-21T16:21:53;4.00;;;0.30;;
55090;SDS011;40985;53.180;5.800;2022-08-21T16:24:19;3.33;;;0.50;;